Aurelia — PB5046 — position and weather

sailwx.info

Track history (hours):
 
Tides and Currents Weather Stations Pressure Air Temp Water Temp Dewpoint Dewpoint Depression Visibility Wind Speed Wind Dir Waves Ship Positions

Aurelia

Last reported at 2016-Jul-28 09:33 UTC. Time now 2016-Jul-30 11:10 UTC.
Position N 53°03' E 005°24'.

Length 32 m; draft 3.8 m.

Type: Pleasure craft. MMSI: 244630125.

Date/timePositionNaut miles runAvg speedWind from/ knotsBaromVisibWave heightAir tempDewpointWater temp
2016-Jul-28 09:33N 53°03' E 005°24'0 0.0
2016-Jul-28 08:33N 53°03' E 005°24'0 0.0
2016-Jul-27 14:33N 53°03' E 005°24'4 3.5
2016-Jul-27 13:33N 52°60' E 005°21'3 3.4
2016-Jul-27 12:33N 53°03' E 005°22'1 0.3
2016-Jul-27 09:31N 53°03' E 005°24'0 0.0
2016-Jul-27 08:28N 53°03' E 005°24'0 0.0
2016-Jul-27 07:31N 53°03' E 005°24'0 0.0
2016-Jul-27 06:28N 53°03' E 005°24'0 0.0
2016-Jul-27 05:31N 53°03' E 005°24'0 0.0
2016-Jul-27 04:28N 53°03' E 005°24'0 0.0
2016-Jul-27 03:31N 53°03' E 005°24'0 0.0
2016-Jul-27 02:28N 53°03' E 005°24'0 0.0
2016-Jul-27 01:31N 53°03' E 005°24'0 0.0
2016-Jul-27 00:31N 53°03' E 005°24'0 0.0
2016-Jul-26 23:32N 53°03' E 005°24'0 0.0
2016-Jul-26 22:32N 53°03' E 005°24'0 0.0
2016-Jul-26 21:17N 53°03' E 005°24'0 0.0
2016-Jul-26 20:32N 53°03' E 005°24'0 0.0
2016-Jul-26 19:32N 53°03' E 005°24'0 0.0
2016-Jul-26 18:32N 53°03' E 005°24'0 0.0
2016-Jul-26 17:32N 53°03' E 005°24'0 0.0
2016-Jul-26 16:32N 53°03' E 005°24'0 0.0
2016-Jul-26 15:32N 53°03' E 005°24'0 0.0
2016-Jul-26 14:26N 53°03' E 005°24'0 0.0
2016-Jul-26 13:32N 53°03' E 005°24'0 0.0
2016-Jul-26 12:32N 53°03' E 005°24'0 0.0
2016-Jul-26 11:29N 53°03' E 005°24'0 0.0
2016-Jul-26 10:32N 53°03' E 005°24'0 0.0
2016-Jul-26 09:32N 53°03' E 005°24'0 0.0
2016-Jul-26 08:32N 53°03' E 005°24'0 0.0
2016-Jul-26 07:29N 53°03' E 005°24'0 0.0
2016-Jul-26 06:26N 53°03' E 005°24'0 0.0
2016-Jul-26 05:32N 53°03' E 005°24'0 0.0
2016-Jul-26 04:32N 53°03' E 005°24'0 0.0
2016-Jul-26 03:32N 53°03' E 005°24'0 0.0
2016-Jul-26 02:26N 53°03' E 005°24'0 0.0
2016-Jul-26 01:26N 53°03' E 005°24'0 0.0
2016-Jul-26 00:32N 53°03' E 005°24'0 0.0
2016-Jul-25 23:32N 53°03' E 005°24'0 0.0
2016-Jul-25 22:29N 53°03' E 005°24'0 0.0
2016-Jul-25 21:32N 53°03' E 005°24'0 0.0
2016-Jul-25 20:29N 53°03' E 005°24'0 0.0
2016-Jul-25 19:29N 53°03' E 005°24'0 0.0
2016-Jul-25 18:32N 53°03' E 005°24'0 0.0
2016-Jul-25 17:26N 53°03' E 005°24'0 0.0
2016-Jul-25 16:32N 53°03' E 005°24'0 0.0
2016-Jul-25 15:32N 53°03' E 005°24'0 0.0
2016-Jul-25 14:26N 53°03' E 005°24'0 0.0
2016-Jul-25 13:29N 53°03' E 005°24'0 0.0
2016-Jul-25 12:29N 53°03' E 005°24'0 0.0
2016-Jul-25 11:29N 53°03' E 005°24'0 0.0
2016-Jul-25 10:29N 53°03' E 005°24'0 0.0
2016-Jul-25 09:30N 53°03' E 005°24'0 0.0
2016-Jul-25 08:30N 53°03' E 005°24'0 0.0
2016-Jul-25 07:33N 53°03' E 005°24'0 0.0
2016-Jul-25 06:33N 53°03' E 005°24'0 0.0
2016-Jul-25 05:33N 53°03' E 005°24'0 0.0
2016-Jul-25 04:33N 53°03' E 005°24'0 0.0
2016-Jul-25 03:33N 53°03' E 005°24'0 0.0
2016-Jul-25 02:33N 53°03' E 005°24'0 0.0
2016-Jul-25 01:33N 53°03' E 005°24'0 0.0
2016-Jul-25 00:33N 53°03' E 005°24'0 0.0
2016-Jul-24 23:33N 53°03' E 005°24'0 0.0
2016-Jul-24 22:33N 53°03' E 005°24'0 0.0
2016-Jul-24 21:33N 53°03' E 005°24'0 0.0
2016-Jul-24 20:33N 53°03' E 005°24'0 0.0
2016-Jul-24 19:33N 53°03' E 005°24'0 0.0
2016-Jul-24 18:30N 53°03' E 005°24'0 0.0
2016-Jul-24 17:33N 53°03' E 005°24'0 0.0
2016-Jul-24 16:30N 53°03' E 005°24'0 0.0
2016-Jul-24 15:33N 53°03' E 005°24'0 0.0
2016-Jul-24 14:33N 53°03' E 005°24'0 0.0
2016-Jul-24 13:33N 53°03' E 005°24'0 0.3
2016-Jul-24 12:33N 53°03' E 005°23'5 5.1
2016-Jul-24 11:33N 52°59' E 005°19'7 7.2
2016-Jul-24 10:33N 52°53' E 005°13'7 7.1
2016-Jul-24 09:33N 52°47' E 005°07'1 0.6
2016-Jul-24 08:33N 52°46' E 005°07'0 0.0
2016-Jul-24 07:33N 52°46' E 005°07'0 0.0
2016-Jul-24 06:33N 52°46' E 005°07'0 0.0
2016-Jul-24 05:33N 52°46' E 005°07'0 0.0
2016-Jul-24 04:33N 52°46' E 005°07'0 0.0
2016-Jul-24 03:33N 52°46' E 005°07'0 0.0
2016-Jul-24 02:33N 52°46' E 005°07'0 0.0
2016-Jul-24 01:33N 52°46' E 005°07'0 0.0
2016-Jul-24 00:33N 52°46' E 005°07'0 0.0
2016-Jul-23 23:33N 52°46' E 005°07'0 0.0
2016-Jul-23 22:33N 52°46' E 005°07'0 0.0
2016-Jul-23 21:33N 52°46' E 005°07'0 0.0
2016-Jul-23 20:33N 52°46' E 005°07'0 0.0
2016-Jul-23 19:33N 52°46' E 005°07'0 0.0
2016-Jul-23 18:33N 52°46' E 005°07'0 0.0
2016-Jul-23 17:33N 52°46' E 005°07'0 0.0
2016-Jul-23 16:33N 52°46' E 005°07'0 0.0
2016-Jul-23 15:34N 52°46' E 005°07'0 0.0
2016-Jul-23 14:33N 52°46' E 005°07'0 0.0
2016-Jul-23 13:33N 52°46' E 005°07'0 0.0
2016-Jul-23 12:34N 52°46' E 005°07'0 0.0
2016-Jul-23 11:34N 52°46' E 005°07'0 0.0
2016-Jul-23 10:34N 52°46' E 005°07'0 0.0
2016-Jul-23 09:31N 52°46' E 005°07'0 0.0
2016-Jul-23 08:34N 52°46' E 005°07'0 0.0
2016-Jul-23 07:31N 52°46' E 005°07'0 0.0
2016-Jul-23 06:31N 52°46' E 005°07'0 0.0
2016-Jul-23 04:31N 52°46' E 005°07'0 0.0
2016-Jul-23 03:31N 52°46' E 005°07'0 0.0
2016-Jul-23 02:31N 52°46' E 005°07'0 0.0
2016-Jul-23 01:31N 52°46' E 005°07'0 0.0
2016-Jul-23 00:31N 52°46' E 005°07'0 0.0
2016-Jul-22 23:31N 52°46' E 005°07'0 0.0
2016-Jul-22 22:31N 52°46' E 005°07'0 0.0
2016-Jul-22 21:31N 52°46' E 005°07'0 0.0
2016-Jul-22 20:31N 52°46' E 005°07'0 0.0
2016-Jul-22 19:31N 52°46' E 005°07'0 0.0
2016-Jul-22 18:31N 52°46' E 005°07'0 0.0
2016-Jul-22 17:31N 52°46' E 005°07'0 0.0
2016-Jul-22 16:31N 52°46' E 005°07'0 0.0
2016-Jul-22 15:31N 52°46' E 005°07'0 0.0
2016-Jul-22 14:31N 52°46' E 005°07'0 0.0
2016-Jul-22 13:31N 52°46' E 005°07'0 0.0
2016-Jul-22 12:31N 52°46' E 005°07'0 0.0
2016-Jul-22 11:31N 52°46' E 005°07'0 0.0
2016-Jul-22 10:31N 52°46' E 005°07'0 0.0
2016-Jul-22 09:31N 52°46' E 005°07'0 0.0
2016-Jul-22 08:31N 52°46' E 005°07'0 0.0
2016-Jul-22 07:31N 52°46' E 005°07'0 0.0
2016-Jul-22 04:31N 52°46' E 005°07'0 0.0
2016-Jul-22 03:31N 52°46' E 005°07'0 0.0
2016-Jul-22 02:31N 52°46' E 005°07'0 0.0
2016-Jul-22 01:31N 52°46' E 005°07'0 0.0
2016-Jul-22 00:31N 52°46' E 005°07'0 0.0
2016-Jul-21 23:31N 52°46' E 005°07'0 0.0
2016-Jul-21 17:31N 52°46' E 005°07'0 0.0
2016-Jul-21 16:31N 52°46' E 005°07'0 0.0
2016-Jul-21 15:31N 52°46' E 005°07'0 0.0
2016-Jul-21 14:32N 52°46' E 005°07'2 1.8
2016-Jul-21 13:33N 52°48' E 005°08'7 6.5
2016-Jul-21 12:33N 52°54' E 005°05'3 2.5
2016-Jul-21 11:33N 52°56' E 005°02'0 0.0
2016-Jul-21 10:21N 52°56' E 005°02'2 2.8
2016-Jul-21 09:31N 52°58' E 004°60'7 0.3
2016-Jul-20 08:04N 53°03' E 004°52'0 0.0
2016-Jul-20 02:28N 53°03' E 004°52'0 0.0
2016-Jul-19 19:16N 53°03' E 004°52'0 0.0
2016-Jul-19 18:32N 53°03' E 004°52'0 0.0
2016-Jul-19 17:29N 53°03' E 004°52'3 0.6
2016-Jul-19 12:31N 53°00' E 004°48'4 3.8
2016-Jul-19 11:31N 53°00' E 004°42'7 7.2
2016-Jul-19 10:33N 53°07' E 004°43'9 8.4
2016-Jul-19 09:31N 53°14' E 004°50'8 8.4
2016-Jul-19 08:33N 53°19' E 005°02'6 6.5
2016-Jul-19 07:33N 53°21' E 005°12'1 0.4
2016-Jul-19 04:32N 53°22' E 005°13'0 0.0
2016-Jul-19 03:29N 53°22' E 005°13'0 0.0
2016-Jul-19 02:32N 53°22' E 005°13'0 0.0
2016-Jul-19 01:32N 53°22' E 005°13'0 0.0
2016-Jul-19 00:32N 53°22' E 005°13'0 0.0
2016-Jul-18 23:29N 53°22' E 005°13'0 0.0
2016-Jul-18 22:32N 53°22' E 005°13'0 0.0
2016-Jul-18 21:32N 53°22' E 005°13'0 0.0
2016-Jul-18 20:20N 53°22' E 005°13'0 0.0
2016-Jul-18 19:26N 53°22' E 005°13'0 0.0
2016-Jul-18 18:32N 53°22' E 005°13'  
Track history (hours):
 
Tides and Currents Weather Stations Pressure Air Temp Water Temp Dewpoint Dewpoint Depression Visibility Wind Speed Wind Dir Waves Ship Positions

Aurelia

Last reported at 2016-Jul-28 09:33 UTC. Time now 2016-Jul-30 11:10 UTC.
Position N 53°03' E 005°24'.

Length 32 m; draft 3.8 m.

Type: Pleasure craft. MMSI: 244630125.

Date/timePositionNaut miles runAvg speedWind from/ knotsBaromVisibWave heightAir tempDewpointWater temp
2016-Jul-28 09:33N 53°03' E 005°24'0 0.0
2016-Jul-28 08:33N 53°03' E 005°24'0 0.0
2016-Jul-27 14:33N 53°03' E 005°24'4 3.5
2016-Jul-27 13:33N 52°60' E 005°21'3 3.4
2016-Jul-27 12:33N 53°03' E 005°22'1 0.3
2016-Jul-27 09:31N 53°03' E 005°24'0 0.0
2016-Jul-27 08:28N 53°03' E 005°24'0 0.0
2016-Jul-27 07:31N 53°03' E 005°24'0 0.0
2016-Jul-27 06:28N 53°03' E 005°24'0 0.0
2016-Jul-27 05:31N 53°03' E 005°24'0 0.0
2016-Jul-27 04:28N 53°03' E 005°24'0 0.0
2016-Jul-27 03:31N 53°03' E 005°24'0 0.0
2016-Jul-27 02:28N 53°03' E 005°24'0 0.0
2016-Jul-27 01:31N 53°03' E 005°24'0 0.0
2016-Jul-27 00:31N 53°03' E 005°24'0 0.0
2016-Jul-26 23:32N 53°03' E 005°24'0 0.0
2016-Jul-26 22:32N 53°03' E 005°24'0 0.0
2016-Jul-26 21:17N 53°03' E 005°24'0 0.0
2016-Jul-26 20:32N 53°03' E 005°24'0 0.0
2016-Jul-26 19:32N 53°03' E 005°24'0 0.0
2016-Jul-26 18:32N 53°03' E 005°24'0 0.0
2016-Jul-26 17:32N 53°03' E 005°24'0 0.0
2016-Jul-26 16:32N 53°03' E 005°24'0 0.0
2016-Jul-26 15:32N 53°03' E 005°24'0 0.0
2016-Jul-26 14:26N 53°03' E 005°24'0 0.0
2016-Jul-26 13:32N 53°03' E 005°24'0 0.0
2016-Jul-26 12:32N 53°03' E 005°24'0 0.0
2016-Jul-26 11:29N 53°03' E 005°24'0 0.0
2016-Jul-26 10:32N 53°03' E 005°24'0 0.0
2016-Jul-26 09:32N 53°03' E 005°24'0 0.0
2016-Jul-26 08:32N 53°03' E 005°24'0 0.0
2016-Jul-26 07:29N 53°03' E 005°24'0 0.0
2016-Jul-26 06:26N 53°03' E 005°24'0 0.0
2016-Jul-26 05:32N 53°03' E 005°24'0 0.0
2016-Jul-26 04:32N 53°03' E 005°24'0 0.0
2016-Jul-26 03:32N 53°03' E 005°24'0 0.0
2016-Jul-26 02:26N 53°03' E 005°24'0 0.0
2016-Jul-26 01:26N 53°03' E 005°24'0 0.0
2016-Jul-26 00:32N 53°03' E 005°24'0 0.0
2016-Jul-25 23:32N 53°03' E 005°24'0 0.0
2016-Jul-25 22:29N 53°03' E 005°24'0 0.0
2016-Jul-25 21:32N 53°03' E 005°24'0 0.0
2016-Jul-25 20:29N 53°03' E 005°24'0 0.0
2016-Jul-25 19:29N 53°03' E 005°24'0 0.0
2016-Jul-25 18:32N 53°03' E 005°24'0 0.0
2016-Jul-25 17:26N 53°03' E 005°24'0 0.0
2016-Jul-25 16:32N 53°03' E 005°24'0 0.0
2016-Jul-25 15:32N 53°03' E 005°24'0 0.0
2016-Jul-25 14:26N 53°03' E 005°24'0 0.0
2016-Jul-25 13:29N 53°03' E 005°24'0 0.0
2016-Jul-25 12:29N 53°03' E 005°24'0 0.0
2016-Jul-25 11:29N 53°03' E 005°24'0 0.0
2016-Jul-25 10:29N 53°03' E 005°24'0 0.0
2016-Jul-25 09:30N 53°03' E 005°24'0 0.0
2016-Jul-25 08:30N 53°03' E 005°24'0 0.0
2016-Jul-25 07:33N 53°03' E 005°24'0 0.0
2016-Jul-25 06:33N 53°03' E 005°24'0 0.0
2016-Jul-25 05:33N 53°03' E 005°24'0 0.0
2016-Jul-25 04:33N 53°03' E 005°24'0 0.0
2016-Jul-25 03:33N 53°03' E 005°24'0 0.0
2016-Jul-25 02:33N 53°03' E 005°24'0 0.0
2016-Jul-25 01:33N 53°03' E 005°24'0 0.0
2016-Jul-25 00:33N 53°03' E 005°24'0 0.0
2016-Jul-24 23:33N 53°03' E 005°24'0 0.0
2016-Jul-24 22:33N 53°03' E 005°24'0 0.0
2016-Jul-24 21:33N 53°03' E 005°24'0 0.0
2016-Jul-24 20:33N 53°03' E 005°24'0 0.0
2016-Jul-24 19:33N 53°03' E 005°24'0 0.0
2016-Jul-24 18:30N 53°03' E 005°24'0 0.0
2016-Jul-24 17:33N 53°03' E 005°24'0 0.0
2016-Jul-24 16:30N 53°03' E 005°24'0 0.0
2016-Jul-24 15:33N 53°03' E 005°24'0 0.0
2016-Jul-24 14:33N 53°03' E 005°24'0 0.0
2016-Jul-24 13:33N 53°03' E 005°24'0 0.3
2016-Jul-24 12:33N 53°03' E 005°23'5 5.1
2016-Jul-24 11:33N 52°59' E 005°19'7 7.2
2016-Jul-24 10:33N 52°53' E 005°13'7 7.1
2016-Jul-24 09:33N 52°47' E 005°07'1 0.6
2016-Jul-24 08:33N 52°46' E 005°07'0 0.0
2016-Jul-24 07:33N 52°46' E 005°07'0 0.0
2016-Jul-24 06:33N 52°46' E 005°07'0 0.0
2016-Jul-24 05:33N 52°46' E 005°07'0 0.0
2016-Jul-24 04:33N 52°46' E 005°07'0 0.0
2016-Jul-24 03:33N 52°46' E 005°07'0 0.0
2016-Jul-24 02:33N 52°46' E 005°07'0 0.0
2016-Jul-24 01:33N 52°46' E 005°07'0 0.0
2016-Jul-24 00:33N 52°46' E 005°07'0 0.0
2016-Jul-23 23:33N 52°46' E 005°07'0 0.0
2016-Jul-23 22:33N 52°46' E 005°07'0 0.0
2016-Jul-23 21:33N 52°46' E 005°07'0 0.0
2016-Jul-23 20:33N 52°46' E 005°07'0 0.0
2016-Jul-23 19:33N 52°46' E 005°07'0 0.0
2016-Jul-23 18:33N 52°46' E 005°07'0 0.0
2016-Jul-23 17:33N 52°46' E 005°07'0 0.0
2016-Jul-23 16:33N 52°46' E 005°07'0 0.0
2016-Jul-23 15:34N 52°46' E 005°07'0 0.0
2016-Jul-23 14:33N 52°46' E 005°07'0 0.0
2016-Jul-23 13:33N 52°46' E 005°07'0 0.0
2016-Jul-23 12:34N 52°46' E 005°07'0 0.0
2016-Jul-23 11:34N 52°46' E 005°07'0 0.0
2016-Jul-23 10:34N 52°46' E 005°07'0 0.0
2016-Jul-23 09:31N 52°46' E 005°07'0 0.0
2016-Jul-23 08:34N 52°46' E 005°07'0 0.0
2016-Jul-23 07:31N 52°46' E 005°07'0 0.0
2016-Jul-23 06:31N 52°46' E 005°07'0 0.0
2016-Jul-23 04:31N 52°46' E 005°07'0 0.0
2016-Jul-23 03:31N 52°46' E 005°07'0 0.0
2016-Jul-23 02:31N 52°46' E 005°07'0 0.0
2016-Jul-23 01:31N 52°46' E 005°07'0 0.0
2016-Jul-23 00:31N 52°46' E 005°07'0 0.0
2016-Jul-22 23:31N 52°46' E 005°07'0 0.0
2016-Jul-22 22:31N 52°46' E 005°07'0 0.0
2016-Jul-22 21:31N 52°46' E 005°07'0 0.0
2016-Jul-22 20:31N 52°46' E 005°07'0 0.0
2016-Jul-22 19:31N 52°46' E 005°07'0 0.0
2016-Jul-22 18:31N 52°46' E 005°07'0 0.0
2016-Jul-22 17:31N 52°46' E 005°07'0 0.0
2016-Jul-22 16:31N 52°46' E 005°07'0 0.0
2016-Jul-22 15:31N 52°46' E 005°07'0 0.0
2016-Jul-22 14:31N 52°46' E 005°07'0 0.0
2016-Jul-22 13:31N 52°46' E 005°07'0 0.0
2016-Jul-22 12:31N 52°46' E 005°07'0 0.0
2016-Jul-22 11:31N 52°46' E 005°07'0 0.0
2016-Jul-22 10:31N 52°46' E 005°07'0 0.0
2016-Jul-22 09:31N 52°46' E 005°07'0 0.0
2016-Jul-22 08:31N 52°46' E 005°07'0 0.0
2016-Jul-22 07:31N 52°46' E 005°07'0 0.0
2016-Jul-22 04:31N 52°46' E 005°07'0 0.0
2016-Jul-22 03:31N 52°46' E 005°07'0 0.0
2016-Jul-22 02:31N 52°46' E 005°07'0 0.0
2016-Jul-22 01:31N 52°46' E 005°07'0 0.0
2016-Jul-22 00:31N 52°46' E 005°07'0 0.0
2016-Jul-21 23:31N 52°46' E 005°07'0 0.0
2016-Jul-21 17:31N 52°46' E 005°07'0 0.0
2016-Jul-21 16:31N 52°46' E 005°07'0 0.0
2016-Jul-21 15:31N 52°46' E 005°07'0 0.0
2016-Jul-21 14:32N 52°46' E 005°07'2 1.8
2016-Jul-21 13:33N 52°48' E 005°08'7 6.5
2016-Jul-21 12:33N 52°54' E 005°05'3 2.5
2016-Jul-21 11:33N 52°56' E 005°02'0 0.0
2016-Jul-21 10:21N 52°56' E 005°02'2 2.8
2016-Jul-21 09:31N 52°58' E 004°60'7 0.3
2016-Jul-20 08:04N 53°03' E 004°52'0 0.0
2016-Jul-20 02:28N 53°03' E 004°52'0 0.0
2016-Jul-19 19:16N 53°03' E 004°52'0 0.0
2016-Jul-19 18:32N 53°03' E 004°52'0 0.0
2016-Jul-19 17:29N 53°03' E 004°52'3 0.6
2016-Jul-19 12:31N 53°00' E 004°48'4 3.8
2016-Jul-19 11:31N 53°00' E 004°42'7 7.2
2016-Jul-19 10:33N 53°07' E 004°43'9 8.4
2016-Jul-19 09:31N 53°14' E 004°50'8 8.4
2016-Jul-19 08:33N 53°19' E 005°02'6 6.5
2016-Jul-19 07:33N 53°21' E 005°12'1 0.4
2016-Jul-19 04:32N 53°22' E 005°13'0 0.0
2016-Jul-19 03:29N 53°22' E 005°13'0 0.0
2016-Jul-19 02:32N 53°22' E 005°13'0 0.0
2016-Jul-19 01:32N 53°22' E 005°13'0 0.0
2016-Jul-19 00:32N 53°22' E 005°13'0 0.0
2016-Jul-18 23:29N 53°22' E 005°13'0 0.0
2016-Jul-18 22:32N 53°22' E 005°13'0 0.0
2016-Jul-18 21:32N 53°22' E 005°13'0 0.0
2016-Jul-18 20:20N 53°22' E 005°13'0 0.0
2016-Jul-18 19:26N 53°22' E 005°13'0 0.0
2016-Jul-18 18:32N 53°22' E 005°13'  

Dump ship's entire track history